Time;durP1;ratioP1;P1;durP2;ratioP2;P2;SDS_P1;SDS_P2;PMS_P1;PMS_P2;Temp;Humidity;BMP_temperature;BMP_pressure;BME280_temperature;BME280_humidity;BME280_pressure;Samples;Min_cycle;Max_cycle;Signal;HPM_P1;HPM_P2
2023/11/26 00:00:12;;;;;;;13.37;7.30;;;3.40;65.40;;;;;;5073731;28;20032;-73
2023/11/26 00:02:38;;;;;;;13.83;7.13;;;3.40;64.70;;;;;;5067806;28;20048;-73
2023/11/26 00:05:05;;;;;;;12.13;6.83;;;3.50;64.90;;;;;;5073634;28;20052;-72
2023/11/26 00:07:31;;;;;;;12.17;6.40;;;3.40;65.00;;;;;;5074036;28;20481;-73
2023/11/26 00:09:56;;;;;;;10.80;6.03;;;3.50;65.20;;;;;;5073805;28;20108;-73
2023/11/26 00:12:23;;;;;;;10.20;6.37;;;3.50;64.80;;;;;;5073778;28;20044;-73
2023/11/26 00:14:49;;;;;;;13.03;6.87;;;3.50;64.40;;;;;;5073541;28;20464;-73
2023/11/26 00:17:15;;;;;;;11.80;6.40;;;3.50;64.50;;;;;;5073688;28;20112;-74
2023/11/26 00:19:41;;;;;;;15.93;7.17;;;3.40;65.20;;;;;;5073251;28;20068;-73
2023/11/26 00:22:07;;;;;;;14.63;7.67;;;3.40;65.70;;;;;;5055412;28;20085;-73
2023/11/26 00:24:33;;;;;;;12.70;6.93;;;3.50;65.00;;;;;;5053749;28;20044;-73
2023/11/26 00:26:59;;;;;;;12.40;5.83;;;3.40;65.10;;;;;;5053619;28;20029;-72
2023/11/26 00:29:25;;;;;;;12.90;5.53;;;3.40;65.00;;;;;;5053319;28;20056;-73
2023/11/26 00:31:51;;;;;;;11.43;5.77;;;3.40;65.20;;;;;;5053349;28;20130;-73
2023/11/26 00:34:17;;;;;;;9.67;5.73;;;3.40;64.80;;;;;;5052996;28;20033;-73
2023/11/26 00:36:43;;;;;;;12.30;6.13;;;3.40;64.70;;;;;;5053279;28;20029;-73
2023/11/26 00:39:09;;;;;;;10.20;5.67;;;3.40;65.10;;;;;;5053247;28;20044;-73
2023/11/26 00:41:35;;;;;;;11.37;5.47;;;3.40;65.30;;;;;;5053484;28;20128;-73
2023/11/26 00:44:01;;;;;;;10.50;5.13;;;3.40;65.30;;;;;;5053100;28;20078;-72
2023/11/26 00:46:27;;;;;;;10.67;5.53;;;3.30;65.00;;;;;;5035340;28;20136;-72
2023/11/26 00:48:53;;;;;;;10.90;4.57;;;3.40;65.00;;;;;;5052989;28;20036;-73
2023/11/26 00:51:19;;;;;;;13.17;6.20;;;3.30;63.70;;;;;;5053622;28;20044;-72
2023/11/26 00:53:45;;;;;;;17.17;7.93;;;3.40;63.90;;;;;;5072650;28;20085;-73
2023/11/26 00:56:11;;;;;;;16.97;7.90;;;3.30;63.70;;;;;;5072783;28;20194;-72
2023/11/26 00:58:36;;;;;;;16.87;8.57;;;3.30;64.90;;;;;;5054561;28;20025;-72
2023/11/26 01:01:02;;;;;;;22.33;9.70;;;3.30;64.80;;;;;;5072255;28;20040;-72
2023/11/26 01:03:28;;;;;;;14.43;8.40;;;3.30;65.50;;;;;;5072489;28;20032;-72
2023/11/26 01:05:54;;;;;;;21.27;8.77;;;3.30;64.60;;;;;;5072545;28;20392;-72
2023/11/26 01:08:21;;;;;;;16.33;8.40;;;3.20;64.40;;;;;;5072676;28;20040;-72
2023/11/26 01:10:47;;;;;;;18.33;8.90;;;3.20;65.30;;;;;;5072714;28;20024;-72
2023/11/26 01:13:12;;;;;;;15.10;8.00;;;3.10;65.60;;;;;;5072619;28;20140;-73
2023/11/26 01:15:38;;;;;;;16.13;7.67;;;3.10;66.90;;;;;;5072580;28;20107;-72
2023/11/26 01:18:04;;;;;;;12.43;7.73;;;3.00;66.40;;;;;;5072268;28;20036;-72
2023/11/26 01:20:30;;;;;;;15.43;7.77;;;3.10;65.90;;;;;;5072128;28;20044;-72
2023/11/26 01:22:56;;;;;;;15.83;8.40;;;3.00;65.20;;;;;;5054224;28;20532;-72
2023/11/26 01:25:22;;;;;;;14.13;7.43;;;3.00;65.60;;;;;;5072444;28;20491;-72
2023/11/26 01:27:48;;;;;;;13.37;7.43;;;3.00;65.90;;;;;;5071857;28;20052;-73
2023/11/26 01:30:14;;;;;;;14.03;7.70;;;2.90;66.10;;;;;;5072614;28;20052;-72
2023/11/26 01:32:41;;;;;;;15.20;8.03;;;2.90;66.70;;;;;;5072087;28;20033;-72
2023/11/26 01:35:08;;;;;;;14.00;7.23;;;2.90;66.80;;;;;;5072077;28;20067;-72
2023/11/26 01:37:34;;;;;;;12.63;6.93;;;2.90;66.10;;;;;;5071585;28;20033;-72
2023/11/26 01:40:00;;;;;;;16.73;8.07;;;2.90;65.70;;;;;;5071886;28;20203;-72
2023/11/26 01:42:26;;;;;;;14.90;7.23;;;2.90;66.00;;;;;;5072061;28;20108;-72
2023/11/26 01:44:51;;;;;;;12.70;7.07;;;2.90;66.10;;;;;;5071601;28;20035;-72
2023/11/26 01:47:18;;;;;;;13.23;7.03;;;2.80;66.30;;;;;;5054081;28;20039;-73
2023/11/26 01:49:44;;;;;;;12.23;6.77;;;2.80;66.90;;;;;;5072296;28;20025;-72
2023/11/26 01:52:13;;;;;;;16.13;6.00;;;2.80;67.10;;;;;;5072445;28;20033;-72
2023/11/26 01:54:42;;;;;;;13.73;6.67;;;2.70;67.70;;;;;;5071710;28;20484;-73
2023/11/26 01:57:10;;;;;;;14.47;6.33;;;2.80;67.50;;;;;;5072135;28;20106;-72
2023/11/26 01:59:36;;;;;;;11.67;6.77;;;2.70;67.40;;;;;;5069097;28;20488;-72
2023/11/26 02:02:02;;;;;;;12.07;6.60;;;2.70;66.90;;;;;;5058146;28;20041;-73
2023/11/26 02:04:28;;;;;;;14.30;6.93;;;2.70;66.80;;;;;;5032110;28;20040;-73
2023/11/26 02:06:55;;;;;;;11.87;6.80;;;2.70;68.20;;;;;;5051693;28;20040;-73
2023/11/26 02:09:22;;;;;;;11.17;5.97;;;2.70;68.10;;;;;;5068365;28;20081;-73
2023/11/26 02:11:48;;;;;;;12.23;6.30;;;2.70;67.80;;;;;;5095381;28;20066;-72
2023/11/26 02:14:15;;;;;;;11.63;5.83;;;2.70;66.80;;;;;;5095741;28;20126;-72
2023/11/26 02:16:48;;;;;;;10.93;5.40;;;2.70;66.60;;;;;;5096027;28;20048;-73
2023/11/26 02:19:25;;;;;;;9.43;5.50;;;2.60;66.60;;;;;;5096238;28;20540;-73
2023/11/26 02:21:52;;;;;;;10.37;5.57;;;2.60;66.70;;;;;;5096097;28;20492;-73
2023/11/26 02:24:26;;;;;;;11.17;5.53;;;2.50;66.50;;;;;;5096174;28;20307;-72
2023/11/26 02:26:53;;;;;;;9.77;5.70;;;2.50;66.50;;;;;;5077825;28;20036;-73
2023/11/26 02:29:18;;;;;;;12.40;5.67;;;2.50;66.60;;;;;;5096043;28;20043;-73
2023/11/26 02:31:44;;;;;;;8.43;4.93;;;2.50;67.00;;;;;;5077888;28;20040;-72
2023/11/26 02:34:10;;;;;;;11.53;5.63;;;2.50;66.80;;;;;;5095948;28;20119;-72
2023/11/26 02:36:36;;;;;;;9.67;5.33;;;2.40;66.70;;;;;;5077605;28;20468;-72
2023/11/26 02:39:04;;;;;;;10.07;5.70;;;2.40;66.70;;;;;;5095999;28;20161;-73
2023/11/26 02:41:31;;;;;;;11.17;5.60;;;2.40;66.70;;;;;;5095854;28;20081;-72
2023/11/26 02:43:57;;;;;;;11.13;5.67;;;2.40;66.70;;;;;;5095725;28;20028;-73
2023/11/26 02:46:23;;;;;;;9.70;5.50;;;2.50;66.70;;;;;;5095987;28;20043;-73
2023/11/26 02:48:49;;;;;;;12.40;6.10;;;2.40;66.50;;;;;;5095755;28;20032;-72
2023/11/26 02:51:15;;;;;;;14.40;6.47;;;2.40;67.10;;;;;;5096004;28;20064;-73
2023/11/26 02:53:41;;;;;;;12.17;5.80;;;2.40;67.10;;;;;;5096191;28;20718;-73
2023/11/26 02:56:07;;;;;;;12.67;6.00;;;2.40;67.40;;;;;;5095642;28;20181;-72
2023/11/26 02:58:32;;;;;;;9.90;5.47;;;2.30;67.30;;;;;;5095823;28;20609;-72
2023/11/26 03:00:58;;;;;;;7.63;4.23;;;2.30;68.00;;;;;;5095501;28;20119;-72
2023/11/26 03:03:24;;;;;;;10.23;5.30;;;2.30;67.60;;;;;;5095721;28;20395;-72
2023/11/26 03:05:50;;;;;;;11.57;4.97;;;2.30;67.90;;;;;;5095792;28;20036;-73
2023/11/26 03:08:22;;;;;;;9.07;4.67;;;2.30;68.60;;;;;;5095844;28;20128;-72
2023/11/26 03:13:35;;;;;;;10.70;4.43;;;2.30;67.70;;;;;;5095729;28;20502;-72
2023/11/26 03:16:11;;;;;;;11.10;5.40;;;2.30;67.10;;;;;;5095544;28;20032;-73
2023/11/26 03:18:37;;;;;;;9.10;4.63;;;2.30;66.70;;;;;;5095719;28;20169;-72
2023/11/26 03:21:03;;;;;;;8.63;4.60;;;2.30;66.50;;;;;;5095225;28;20119;-73
2023/11/26 03:23:30;;;;;;;9.77;4.27;;;2.30;66.80;;;;;;5076030;28;20044;-72
2023/11/26 03:25:56;;;;;;;9.57;4.03;;;2.30;66.90;;;;;;5095387;28;20392;-73
2023/11/26 03:28:23;;;;;;;11.30;5.23;;;2.20;66.70;;;;;;5095351;28;20040;-72
2023/11/26 03:30:52;;;;;;;13.07;5.87;;;2.20;66.40;;;;;;5095132;28;20032;-73
2023/11/26 03:33:18;;;;;;;9.17;4.93;;;2.20;66.40;;;;;;5095375;28;20047;-73
2023/11/26 03:35:47;;;;;;;10.17;4.30;;;2.20;66.40;;;;;;5095074;28;20508;-73
2023/11/26 03:38:13;;;;;;;9.10;4.40;;;2.20;66.30;;;;;;5095028;28;20066;-73
2023/11/26 03:40:39;;;;;;;10.13;4.73;;;2.30;66.40;;;;;;5095242;28;20036;-73
2023/11/26 03:43:06;;;;;;;9.97;4.63;;;2.20;67.00;;;;;;5095098;28;20507;-73
2023/11/26 03:45:31;;;;;;;8.53;4.90;;;2.20;67.20;;;;;;5094970;28;20028;-73
2023/11/26 03:47:57;;;;;;;9.17;4.70;;;2.20;67.30;;;;;;5094920;28;20480;-73
2023/11/26 03:50:23;;;;;;;9.13;4.63;;;2.20;67.40;;;;;;5094815;28;20514;-73
2023/11/26 03:52:49;;;;;;;9.53;4.20;;;2.10;67.60;;;;;;5095020;28;20028;-73
2023/11/26 03:55:15;;;;;;;8.03;3.80;;;2.10;67.50;;;;;;5094597;28;20860;-72
2023/11/26 03:57:43;;;;;;;6.67;3.43;;;2.10;67.30;;;;;;5094725;28;20073;-73
2023/11/26 04:00:09;;;;;;;10.33;4.37;;;2.20;67.20;;;;;;5094309;28;20044;-73
2023/11/26 04:02:36;;;;;;;17.13;4.63;;;2.20;67.60;;;;;;5094485;28;20177;-72
2023/11/26 04:05:04;;;;;;;9.97;4.90;;;2.20;67.50;;;;;;5094617;28;20036;-72
2023/11/26 04:07:30;;;;;;;10.73;5.13;;;2.20;67.30;;;;;;5094735;28;20408;-73
2023/11/26 04:09:55;;;;;;;9.03;4.70;;;2.20;67.50;;;;;;5094266;28;20068;-73
2023/11/26 04:12:21;;;;;;;10.33;4.90;;;2.20;67.60;;;;;;5094292;28;20036;-72
2023/11/26 04:14:54;;;;;;;10.33;4.87;;;2.20;67.80;;;;;;5094119;28;20094;-72
2023/11/26 04:17:21;;;;;;;8.67;4.83;;;2.10;67.80;;;;;;5093916;28;20047;-73
2023/11/26 04:19:49;;;;;;;10.73;5.10;;;2.10;67.80;;;;;;5094448;28;20063;-72
2023/11/26 04:22:15;;;;;;;8.13;4.50;;;2.10;67.90;;;;;;5094142;28;20594;-73
2023/11/26 04:24:42;;;;;;;8.80;4.63;;;2.20;67.90;;;;;;5094458;28;20384;-73
2023/11/26 04:27:08;;;;;;;9.03;4.73;;;2.10;67.70;;;;;;5093691;28;20043;-72
2023/11/26 04:29:34;;;;;;;10.20;4.70;;;2.10;68.50;;;;;;5094160;28;20032;-73
2023/11/26 04:32:00;;;;;;;15.30;4.80;;;2.00;68.30;;;;;;5094099;28;20081;-72
2023/11/26 04:34:25;;;;;;;10.27;4.60;;;2.00;68.40;;;;;;5072770;28;20024;-73
2023/11/26 04:36:51;;;;;;;7.83;4.33;;;2.00;68.40;;;;;;5056646;28;20052;-73
2023/11/26 04:39:17;;;;;;;13.43;5.20;;;2.00;68.60;;;;;;5053663;28;20033;-71
2023/11/26 04:41:43;;;;;;;9.50;5.50;;;2.00;68.70;;;;;;5053196;28;20115;-72
2023/11/26 04:44:09;;;;;;;9.37;4.53;;;2.00;68.70;;;;;;5052944;28;20505;-73
2023/11/26 04:46:34;;;;;;;11.03;5.00;;;2.00;69.70;;;;;;5053261;28;20117;-72
2023/11/26 04:49:00;;;;;;;8.37;5.00;;;2.00;69.70;;;;;;5053225;28;20720;-72
2023/11/26 04:51:27;;;;;;;10.77;5.10;;;2.00;69.50;;;;;;5053123;28;20116;-73
2023/11/26 04:53:53;;;;;;;11.03;5.83;;;1.90;69.60;;;;;;5053528;28;20036;-73
2023/11/26 04:56:19;;;;;;;10.07;5.70;;;1.90;69.60;;;;;;5053557;28;20029;-72
2023/11/26 04:58:45;;;;;;;13.30;5.90;;;2.00;69.50;;;;;;5053495;28;20376;-73
2023/11/26 05:01:17;;;;;;;11.27;5.10;;;2.00;69.70;;;;;;5052858;28;20037;-73
2023/11/26 05:03:44;;;;;;;8.90;5.38;;;2.00;70.10;;;;;;5053453;28;20029;-72
2023/11/26 05:06:13;;;;;;;11.57;5.20;;;2.00;70.20;;;;;;5053308;28;20041;-73
2023/11/26 05:08:40;;;;;;;11.27;5.87;;;2.00;70.60;;;;;;5053165;28;20071;-72
2023/11/26 05:11:06;;;;;;;9.27;4.90;;;2.00;70.70;;;;;;5052879;28;20039;-73
2023/11/26 05:13:32;;;;;;;9.53;4.30;;;2.00;71.00;;;;;;5052495;28;20044;-72
2023/11/26 05:15:58;;;;;;;8.90;4.43;;;2.00;70.60;;;;;;5063606;28;20059;-72
2023/11/26 05:18:24;;;;;;;7.23;3.70;;;2.00;70.10;;;;;;5064492;28;20488;-73
2023/11/26 05:20:51;;;;;;;8.90;4.00;;;2.10;69.70;;;;;;5063820;28;20049;-72
2023/11/26 05:23:17;;;;;;;8.13;3.70;;;2.10;69.40;;;;;;5066452;28;20039;-73
2023/11/26 05:25:44;;;;;;;7.20;3.07;;;2.10;69.60;;;;;;5068771;28;20468;-72
2023/11/26 05:28:10;;;;;;;7.07;3.27;;;2.10;70.00;;;;;;5073104;28;20130;-73
2023/11/26 05:30:35;;;;;;;7.93;4.07;;;2.10;69.50;;;;;;5072887;28;20045;-72
2023/11/26 05:33:02;;;;;;;11.60;4.57;;;2.20;68.50;;;;;;5072568;28;20052;-73
2023/11/26 05:35:28;;;;;;;11.50;4.30;;;2.10;68.90;;;;;;5065275;28;20051;-73
2023/11/26 05:37:55;;;;;;;9.10;3.90;;;2.20;69.00;;;;;;5054259;28;20033;-73
2023/11/26 05:40:22;;;;;;;8.43;4.07;;;2.10;69.50;;;;;;5052365;28;20045;-73
2023/11/26 05:42:49;;;;;;;9.33;4.43;;;2.20;69.40;;;;;;5052313;28;20132;-73
2023/11/26 05:45:15;;;;;;;8.63;4.27;;;2.20;70.10;;;;;;5051615;28;20087;-72
2023/11/26 05:47:41;;;;;;;7.83;3.90;;;2.10;71.20;;;;;;5052367;28;20392;-72
2023/11/26 05:50:07;;;;;;;8.33;4.37;;;2.10;70.80;;;;;;5052007;28;20111;-73
2023/11/26 05:52:34;;;;;;;10.03;4.30;;;2.10;70.60;;;;;;5052437;28;20036;-73
2023/11/26 05:55:01;;;;;;;7.83;3.87;;;2.10;70.40;;;;;;5051893;28;20072;-73
2023/11/26 05:57:27;;;;;;;10.33;4.17;;;2.10;70.90;;;;;;5051924;28;20033;-73
2023/11/26 05:59:53;;;;;;;9.60;4.43;;;2.00;71.00;;;;;;5051957;28;20112;-73
2023/11/26 06:02:19;;;;;;;10.03;4.03;;;2.00;70.90;;;;;;5056257;28;20123;-72
2023/11/26 06:04:45;;;;;;;11.60;4.53;;;1.90;71.20;;;;;;5058315;28;20033;-73
2023/11/26 06:07:11;;;;;;;11.50;4.10;;;2.00;71.40;;;;;;5052201;28;20064;-72
2023/11/26 06:09:37;;;;;;;9.60;4.60;;;2.00;71.10;;;;;;5052020;28;20065;-73
2023/11/26 06:12:04;;;;;;;9.93;3.80;;;2.00;71.30;;;;;;5051972;28;20041;-73
2023/11/26 06:14:30;;;;;;;10.77;4.50;;;1.90;71.40;;;;;;5051847;28;20055;-72
2023/11/26 06:16:55;;;;;;;9.47;4.40;;;1.90;71.40;;;;;;5052257;28;20032;-73
2023/11/26 06:19:21;;;;;;;6.93;4.00;;;1.90;71.60;;;;;;5051898;28;20025;-72
2023/11/26 06:21:47;;;;;;;9.23;3.90;;;1.90;71.60;;;;;;5051672;28;20098;-73
2023/11/26 06:24:13;;;;;;;7.03;3.40;;;1.90;71.40;;;;;;5051317;28;20044;-72
2023/11/26 06:26:40;;;;;;;7.93;3.53;;;1.80;71.60;;;;;;5051815;28;20029;-73
2023/11/26 06:29:06;;;;;;;8.60;3.83;;;1.80;71.30;;;;;;5051794;28;20363;-73
2023/11/26 06:31:32;;;;;;;8.37;3.93;;;1.80;71.30;;;;;;5052004;28;20080;-73
2023/11/26 06:33:58;;;;;;;7.67;3.80;;;1.80;71.60;;;;;;5051926;28;20036;-72
2023/11/26 06:36:24;;;;;;;7.93;4.20;;;1.70;71.90;;;;;;5051905;28;20040;-72
2023/11/26 06:38:51;;;;;;;8.43;4.03;;;1.70;71.60;;;;;;5051452;28;20025;-73
2023/11/26 06:41:38;;;;;;;6.53;3.93;;;1.70;72.20;;;;;;5051554;28;20580;-72
2023/11/26 06:44:04;;;;;;;14.70;8.40;;;1.60;72.00;;;;;;5051711;28;20029;-72
2023/11/26 06:46:30;;;;;;;9.20;5.67;;;1.60;72.30;;;;;;5051357;28;20041;-73
2023/11/26 06:48:56;;;;;;;9.37;5.00;;;1.60;72.50;;;;;;5051565;28;20140;-72
2023/11/26 06:51:22;;;;;;;15.07;7.63;;;1.60;72.60;;;;;;5051495;28;20033;-72
2023/11/26 06:53:50;;;;;;;15.67;8.27;;;1.50;73.40;;;;;;5051370;28;20469;-73
2023/11/26 06:56:16;;;;;;;18.20;9.73;;;1.60;73.30;;;;;;5052385;28;20493;-73
2023/11/26 06:58:43;;;;;;;18.17;9.57;;;1.60;72.80;;;;;;5054858;28;20035;-72
2023/11/26 07:01:13;;;;;;;17.37;9.53;;;1.60;73.20;;;;;;5052733;28;20422;-72
2023/11/26 07:03:40;;;;;;;15.80;8.30;;;1.60;73.30;;;;;;5053579;28;20049;-73
2023/11/26 07:06:09;;;;;;;11.67;6.80;;;1.70;73.10;;;;;;5054026;28;20075;-73
2023/11/26 07:08:37;;;;;;;11.30;6.40;;;1.60;73.20;;;;;;5037198;28;20366;-73
2023/11/26 07:11:06;;;;;;;12.73;6.30;;;1.70;73.50;;;;;;5055379;28;20091;-74
2023/11/26 07:13:33;;;;;;;11.73;6.40;;;1.70;73.50;;;;;;5055876;28;20049;-73
2023/11/26 07:15:59;;;;;;;17.23;8.30;;;1.80;72.90;;;;;;5074925;28;20094;-72
2023/11/26 07:18:25;;;;;;;12.47;7.30;;;1.80;72.80;;;;;;5053519;28;20410;-73
2023/11/26 07:20:51;;;;;;;11.40;6.33;;;1.80;73.60;;;;;;5052304;28;20041;-72
2023/11/26 07:23:17;;;;;;;7.77;4.67;;;1.90;73.90;;;;;;5055186;28;20044;-73
2023/11/26 07:25:43;;;;;;;7.83;4.20;;;2.00;72.90;;;;;;5055283;28;20037;-73
2023/11/26 07:28:13;;;;;;;7.30;4.27;;;2.00;72.50;;;;;;5055122;28;20378;-73
2023/11/26 07:30:40;;;;;;;7.27;4.23;;;2.00;73.10;;;;;;5055550;28;20029;-72
2023/11/26 07:33:06;;;;;;;7.87;3.87;;;2.00;73.20;;;;;;5054983;28;20040;-72
2023/11/26 07:35:32;;;;;;;12.17;5.27;;;2.10;72.60;;;;;;5055626;28;20396;-73
2023/11/26 07:38:01;;;;;;;8.10;4.17;;;2.20;72.10;;;;;;5054716;28;20055;-72
2023/11/26 07:40:30;;;;;;;9.07;3.60;;;2.20;72.50;;;;;;5060167;28;20412;-73
2023/11/26 07:42:56;;;;;;;10.93;4.33;;;2.20;72.90;;;;;;5075101;28;20481;-73
2023/11/26 07:45:22;;;;;;;9.67;3.83;;;2.20;73.20;;;;;;5074931;28;20028;-73
2023/11/26 07:47:47;;;;;;;8.97;3.90;;;2.20;73.20;;;;;;5074987;28;20040;-72
2023/11/26 07:50:13;;;;;;;6.30;3.60;;;2.20;73.40;;;;;;5072859;28;20115;-74
2023/11/26 07:52:39;;;;;;;6.63;3.23;;;2.30;73.30;;;;;;5074770;28;20058;-74
2023/11/26 07:55:06;;;;;;;8.80;4.00;;;2.40;73.40;;;;;;5067415;28;20090;-73
2023/11/26 07:57:32;;;;;;;7.63;4.07;;;2.40;73.10;;;;;;5052807;28;20475;-73
2023/11/26 07:59:59;;;;;;;8.23;3.70;;;2.50;74.00;;;;;;5054350;28;20044;-71
2023/11/26 08:02:29;;;;;;;8.20;4.07;;;2.50;73.80;;;;;;5076000;28;20044;-72
2023/11/26 08:04:56;;;;;;;9.23;4.17;;;2.50;72.90;;;;;;5074051;28;20029;-72
2023/11/26 08:07:27;;;;;;;7.93;3.53;;;2.60;73.30;;;;;;5073877;28;20455;-73
2023/11/26 08:09:54;;;;;;;8.00;3.70;;;2.70;73.40;;;;;;5073420;28;20044;-72
2023/11/26 08:12:24;;;;;;;5.80;3.50;;;2.70;72.90;;;;;;5074183;28;20404;-73
2023/11/26 08:14:55;;;;;;;10.17;4.60;;;2.80;71.50;;;;;;5055973;28;20106;-73
2023/11/26 08:17:22;;;;;;;12.40;4.60;;;2.80;72.70;;;;;;5052791;28;20128;-72
2023/11/26 08:19:48;;;;;;;11.83;3.77;;;2.80;73.10;;;;;;5053778;28;20033;-73
2023/11/26 08:22:15;;;;;;;6.80;3.60;;;2.90;71.80;;;;;;5053666;28;20094;-73
2023/11/26 08:24:45;;;;;;;7.73;4.00;;;3.00;71.40;;;;;;5032648;28;20485;-73
2023/11/26 08:27:11;;;;;;;7.77;3.53;;;3.00;71.60;;;;;;5032685;28;20060;-72
2023/11/26 08:29:38;;;;;;;7.87;3.53;;;3.00;71.70;;;;;;5032032;28;20033;-72
2023/11/26 08:32:04;;;;;;;7.43;3.60;;;3.00;71.60;;;;;;5031693;28;20126;-72
2023/11/26 08:34:37;;;;;;;5.90;3.67;;;3.10;71.60;;;;;;5032108;28;20080;-72
2023/11/26 08:37:05;;;;;;;7.03;3.22;;;3.10;71.40;;;;;;5031568;28;20081;-73
2023/11/26 08:39:34;;;;;;;6.47;2.93;;;3.20;71.30;;;;;;5029322;28;20574;-72
2023/11/26 08:42:04;;;;;;;5.30;3.10;;;3.20;71.20;;;;;;5031907;28;20409;-72
2023/11/26 08:44:33;;;;;;;5.70;3.20;;;3.30;71.00;;;;;;5034132;28;20033;-72
2023/11/26 08:47:00;;;;;;;7.90;3.13;;;3.30;70.70;;;;;;5034225;28;20033;-73
2023/11/26 08:49:28;;;;;;;7.33;3.70;;;3.40;70.60;;;;;;5032975;28;20029;-72
2023/11/26 08:51:55;;;;;;;7.30;3.37;;;3.40;70.60;;;;;;5033885;28;20025;-72
2023/11/26 08:54:22;;;;;;;6.97;3.33;;;3.50;70.70;;;;;;5033611;28;20033;-73
2023/11/26 08:56:50;;;;;;;6.63;3.70;;;3.60;71.40;;;;;;5033317;28;20037;-72
2023/11/26 08:59:16;;;;;;;8.87;4.00;;;3.60;71.00;;;;;;5033869;28;20101;-72
2023/11/26 09:01:42;;;;;;;7.17;3.43;;;3.70;70.90;;;;;;5033648;28;20041;-72
2023/11/26 09:04:08;;;;;;;6.43;3.40;;;3.80;70.60;;;;;;5033646;28;20034;-72
2023/11/26 09:06:33;;;;;;;9.87;4.20;;;3.80;70.30;;;;;;5032948;28;20050;-72
2023/11/26 09:08:59;;;;;;;6.47;3.57;;;3.90;70.50;;;;;;5033310;28;20071;-72
2023/11/26 09:11:26;;;;;;;7.00;3.37;;;3.90;71.10;;;;;;5032785;28;20033;-73
2023/11/26 09:13:52;;;;;;;5.77;3.30;;;4.00;71.30;;;;;;5041987;28;20396;-72
2023/11/26 09:16:19;;;;;;;8.80;3.40;;;4.10;70.70;;;;;;5053268;28;20032;-73
2023/11/26 09:18:45;;;;;;;7.50;3.60;;;4.10;70.70;;;;;;5035577;28;20556;-72
2023/11/26 09:21:12;;;;;;;11.97;3.13;;;4.20;70.60;;;;;;5053133;28;20041;-72
2023/11/26 09:23:42;;;;;;;8.00;3.57;;;4.30;70.70;;;;;;5053107;28;20384;-73
2023/11/26 09:26:10;;;;;;;8.03;3.33;;;4.40;70.90;;;;;;5053108;28;20037;-73
2023/11/26 09:28:36;;;;;;;7.90;3.97;;;4.40;70.80;;;;;;5053093;28;20037;-73
2023/11/26 09:31:03;;;;;;;8.13;4.10;;;4.50;70.90;;;;;;5052896;28;20037;-73
2023/11/26 09:33:29;;;;;;;12.53;5.43;;;4.50;70.80;;;;;;5051070;28;20033;-72
2023/11/26 09:35:55;;;;;;;20.33;7.93;;;4.60;71.00;;;;;;5049983;28;20044;-72
2023/11/26 09:38:21;;;;;;;9.83;5.00;;;4.70;71.20;;;;;;5050722;28;20207;-72
2023/11/26 09:40:47;;;;;;;9.53;4.50;;;4.70;71.00;;;;;;5052932;28;20436;-73
2023/11/26 09:43:14;;;;;;;10.10;4.17;;;4.80;70.80;;;;;;5053014;28;20086;-72
2023/11/26 09:45:41;;;;;;;8.20;3.90;;;4.90;70.50;;;;;;5052972;28;20033;-72
2023/11/26 09:48:09;;;;;;;9.13;4.30;;;4.90;70.20;;;;;;5052902;28;20029;-73
2023/11/26 09:50:35;;;;;;;6.73;3.40;;;5.00;70.10;;;;;;5052568;28;20036;-73
2023/11/26 09:53:02;;;;;;;4.93;2.67;;;5.10;69.80;;;;;;5053367;28;20029;-73
2023/11/26 09:55:37;;;;;;;12.87;3.50;;;5.10;69.50;;;;;;5052679;28;20037;-73
2023/11/26 09:58:03;;;;;;;4.83;3.20;;;5.20;69.20;;;;;;5051127;28;20033;-73
2023/11/26 10:00:30;;;;;;;6.77;4.10;;;5.30;69.80;;;;;;5049836;28;20079;-73
2023/11/26 10:03:03;;;;;;;6.23;3.40;;;5.40;69.60;;;;;;5049850;28;20041;-73
2023/11/26 10:05:31;;;;;;;5.32;3.22;;;5.50;69.30;;;;;;5050601;28;20032;-73
2023/11/26 10:07:57;;;;;;;5.63;3.00;;;5.50;69.00;;;;;;5034831;28;20048;-73
2023/11/26 10:10:23;;;;;;;6.17;3.03;;;5.60;68.90;;;;;;5034743;28;20404;-73
2023/11/26 10:13:00;;;;;;;5.77;3.20;;;5.70;68.70;;;;;;5064951;23;20104;-80
2023/11/26 10:15:31;;;;;;;6.73;3.23;;;5.70;69.00;;;;;;5065551;28;20051;-78
2023/11/26 10:18:04;;;;;;;7.37;3.33;;;5.80;68.50;;;;;;5072881;28;20482;-82
2023/11/26 10:20:35;;;;;;;6.00;3.40;;;5.90;67.80;;;;;;5072407;28;20468;-79
2023/11/26 10:23:02;;;;;;;7.50;3.47;;;6.00;67.70;;;;;;5072669;28;20522;-82
2023/11/26 10:25:28;;;;;;;7.07;3.70;;;6.00;67.70;;;;;;5071226;28;20506;-79
2023/11/26 10:27:59;;;;;;;5.73;3.20;;;6.10;68.00;;;;;;5072337;28;20037;-79
2023/11/26 10:30:29;;;;;;;7.13;3.37;;;6.20;67.50;;;;;;5092180;28;20108;-80
2023/11/26 10:33:01;;;;;;;6.57;3.57;;;6.30;67.10;;;;;;5095603;28;20035;-81
2023/11/26 10:35:43;;;;;;;6.60;3.13;;;6.40;67.60;;;;;;5095815;28;20451;-79
2023/11/26 10:38:09;;;;;;;8.47;3.80;;;6.50;67.20;;;;;;5095019;28;20029;-79
2023/11/26 10:40:36;;;;;;;6.27;3.30;;;6.50;66.80;;;;;;5093932;28;20075;-78
2023/11/26 10:43:09;;;;;;;6.83;3.07;;;6.60;66.50;;;;;;5081475;28;20052;-79
2023/11/26 10:45:37;;;;;;;7.50;2.80;;;6.70;65.90;;;;;;5057439;28;20033;-79
2023/11/26 10:48:12;;;;;;;9.30;3.13;;;6.70;64.90;;;;;;5059022;28;20044;-79
2023/11/26 10:51:00;;;;;;;5.73;3.00;;;6.80;65.10;;;;;;5059030;28;20032;-80
2023/11/26 10:53:35;;;;;;;4.27;2.60;;;6.90;65.90;;;;;;5076978;28;20028;-80
2023/11/26 10:56:04;;;;;;;3.27;1.50;;;7.00;66.30;;;;;;5076941;28;20031;-80
2023/11/26 10:58:39;;;;;;;4.20;2.10;;;7.10;66.50;;;;;;5076913;28;20040;-80
2023/11/26 11:01:08;;;;;;;3.40;2.30;;;7.20;64.40;;;;;;5076505;28;20430;-79
2023/11/26 11:03:34;;;;;;;2.97;1.13;;;7.30;64.70;;;;;;5076448;28;20439;-79
2023/11/26 11:06:02;;;;;;;1.33;0.70;;;7.30;64.30;;;;;;5076448;28;20029;-80
2023/11/26 11:08:38;;;;;;;2.00;0.80;;;7.40;62.50;;;;;;5076190;28;20112;-80
2023/11/26 11:11:21;;;;;;;1.67;0.83;;;7.50;60.90;;;;;;5076400;28;20433;-77
2023/11/26 11:13:49;;;;;;;1.70;0.60;;;7.70;59.90;;;;;;5076005;28;20048;-80
2023/11/26 11:16:15;;;;;;;1.57;0.60;;;7.70;58.30;;;;;;5076267;28;20036;-80
2023/11/26 11:18:45;;;;;;;1.07;0.40;;;7.80;58.00;;;;;;5076085;28;20380;-80
2023/11/26 11:21:16;;;;;;;1.23;0.60;;;7.90;57.00;;;;;;5075947;28;20045;-80
2023/11/26 11:23:49;;;;;;;1.90;0.80;;;7.90;55.00;;;;;;5075779;28;20035;-80
2023/11/26 11:26:18;;;;;;;1.43;0.60;;;8.00;55.10;;;;;;5075414;28;20036;-80
2023/11/26 11:28:51;;;;;;;0.90;0.30;;;8.00;54.20;;;;;;5075805;28;20513;-80
2023/11/26 11:31:41;;;;;;;1.23;0.43;;;8.10;52.50;;;;;;5057999;28;20434;-80
2023/11/26 11:34:13;;;;;;;0.80;0.40;;;8.10;53.20;;;;;;5054894;28;20403;-79
2023/11/26 11:36:49;;;;;;;1.77;0.50;;;8.20;53.50;;;;;;5057479;28;20381;-81
2023/11/26 11:39:16;;;;;;;0.90;0.50;;;8.30;54.30;;;;;;5095195;28;20032;-79
2023/11/26 11:41:57;;;;;;;3.17;0.47;;;8.30;54.30;;;;;;5095448;28;20120;-78
2023/11/26 11:44:35;;;;;;;1.50;0.60;;;8.40;54.10;;;;;;5094167;28;20085;-80
2023/11/26 11:47:08;;;;;;;0.57;0.30;;;8.50;53.90;;;;;;5095535;28;20395;-80
2023/11/26 11:49:49;;;;;;;0.73;0.30;;;8.50;52.50;;;;;;5095504;28;20036;-80
2023/11/26 11:52:16;;;;;;;2.57;0.47;;;8.60;50.90;;;;;;5095361;28;20112;-80
2023/11/26 11:54:59;;;;;;;0.87;0.40;;;8.60;50.60;;;;;;5095555;28;20450;-80
2023/11/26 11:57:26;;;;;;;;;;;8.70;51.70;;;;;;5095791;28;20043;-80
2023/11/26 11:59:52;;;;;;;1.53;0.40;;;8.70;51.80;;;;;;5091973;28;19943;-80
2023/11/26 12:02:24;;;;;;;0.33;0.30;;;8.70;50.90;;;;;;5092385;28;20491;-79
2023/11/26 12:04:50;;;;;;;0.80;0.40;;;8.80;50.90;;;;;;5095405;28;20429;-80
2023/11/26 12:07:18;;;;;;;1.10;0.50;;;8.80;50.50;;;;;;5095386;28;20036;-80
2023/11/26 12:09:45;;;;;;;1.03;0.60;;;8.90;50.60;;;;;;5095168;28;20063;-80
2023/11/26 12:12:16;;;;;;;1.03;0.50;;;8.90;51.00;;;;;;5094996;28;20428;-77
2023/11/26 12:14:41;;;;;;;1.90;0.77;;;9.00;50.80;;;;;;5075409;28;20484;-79
2023/11/26 12:17:08;;;;;;;0.90;0.50;;;9.10;51.50;;;;;;5075009;28;20063;-78
2023/11/26 12:19:38;;;;;;;0.60;0.33;;;9.10;48.60;;;;;;5074651;28;20039;-80
2023/11/26 12:22:04;;;;;;;0.60;0.30;;;9.10;49.50;;;;;;5074598;28;20044;-80
2023/11/26 12:24:31;;;;;;;1.10;0.50;;;9.20;49.90;;;;;;5072374;28;20119;-80
2023/11/26 12:26:58;;;;;;;0.87;0.63;;;9.30;49.10;;;;;;5071969;28;20111;-80
2023/11/26 12:29:34;;;;;;;1.97;0.90;;;9.30;49.30;;;;;;5072310;28;20028;-80
2023/11/26 12:32:06;;;;;;;2.03;1.17;;;9.30;49.40;;;;;;5074819;28;20388;-80
2023/11/26 12:34:39;;;;;;;10.32;1.33;;;9.30;51.30;;;;;;5075122;28;20029;-80
2023/11/26 12:37:09;;;;;;;4.00;1.30;;;9.40;53.80;;;;;;5074689;28;20032;-80
2023/11/26 12:39:45;;;;;;;4.90;1.70;;;9.40;54.80;;;;;;5074655;28;20024;-80
2023/11/26 12:42:11;;;;;;;5.37;1.53;;;9.50;55.40;;;;;;5074382;28;20051;-81
2023/11/26 12:44:37;;;;;;;3.37;1.80;;;9.50;55.10;;;;;;5074679;28;20425;-80
2023/11/26 12:47:09;;;;;;;2.87;1.77;;;9.50;54.70;;;;;;5074506;28;20079;-80
2023/11/26 12:49:39;;;;;;;2.55;1.67;;;9.50;53.90;;;;;;5074309;28;20047;-80
2023/11/26 12:52:10;;;;;;;2.70;1.50;;;9.50;54.60;;;;;;5074585;28;20029;-80
2023/11/26 12:55:10;;;;;;;2.73;1.60;;;9.50;55.10;;;;;;5073803;28;20080;-81
2023/11/26 12:57:43;;;;;;;2.93;1.57;;;9.60;55.10;;;;;;5074025;28;20033;-80